Time;durP1;ratioP1;P1;durP2;ratioP2;P2;SDS_P1;SDS_P2;PMS_P1;PMS_P2;Temp;Humidity;BMP_temperature;BMP_pressure;BME280_temperature;BME280_humidity;BME280_pressure;Samples;Min_cycle;Max_cycle;Signal;HPM_P1;HPM_P2
2024/01/10 00:00:17;;;;;;;99.60;47.40;;;;;;;-7.07;61.29;101894.17;103229;1255;138557;-65
2024/01/10 00:03:05;;;;;;;105.80;47.80;;;;;;;-7.11;61.35;101884.45;103552;1254;96455;-66
2024/01/10 00:05:32;;;;;;;107.70;49.60;;;;;;;-7.16;61.35;101878.92;103276;1252;138530;-65
2024/01/10 00:07:58;;;;;;;107.80;48.90;;;;;;;-7.15;61.25;101875.77;103355;1251;96455;-66
2024/01/10 00:10:26;;;;;;;101.10;47.60;;;;;;;-7.18;61.50;101868.73;103411;1254;109919;-65
2024/01/10 00:12:52;;;;;;;108.00;49.80;;;;;;;-7.21;61.34;101867.70;103287;1250;138697;-63
2024/01/10 00:15:19;;;;;;;105.50;47.90;;;;;;;-7.23;61.48;101867.23;103382;1251;96348;-65
2024/01/10 00:17:46;;;;;;;98.60;47.40;;;;;;;-7.30;61.45;101869.34;102502;1251;1003066;-65
2024/01/10 00:20:14;;;;;;;106.80;47.80;;;;;;;-7.38;61.44;101873.94;103397;1250;96521;-64
2024/01/10 00:22:41;;;;;;;97.90;45.50;;;;;;;-7.39;61.75;101868.42;103405;1251;109793;-65
2024/01/10 00:25:08;;;;;;;97.30;45.80;;;;;;;-7.43;61.59;101865.48;103283;1254;138561;-65
2024/01/10 00:27:35;;;;;;;96.90;45.20;;;;;;;-7.43;61.88;101866.65;104174;1253;95695;-66
2024/01/10 00:30:02;;;;;;;93.90;43.90;;;;;;;-7.41;61.90;101863.58;102529;1250;1003171;-66
2024/01/10 00:32:29;;;;;;;97.60;45.10;;;;;;;-7.40;61.83;101863.80;103338;1251;96447;-66
2024/01/10 00:34:56;;;;;;;104.60;46.00;;;;;;;-7.39;61.96;101869.44;103371;1251;110355;-67
2024/01/10 00:37:23;;;;;;;99.60;44.40;;;;;;;-7.37;62.02;101872.47;103287;1251;139186;-66
2024/01/10 00:39:50;;;;;;;92.30;43.80;;;;;;;-7.35;62.01;101870.59;103439;1251;96978;-64
2024/01/10 00:42:17;;;;;;;94.40;43.20;;;;;;;-7.29;61.84;101878.67;103281;1251;138989;-66
2024/01/10 00:44:44;;;;;;;92.10;45.10;;;;;;;-7.27;62.02;101873.42;103396;1251;96543;-64
2024/01/10 00:47:11;;;;;;;90.60;44.30;;;;;;;-7.26;61.75;101871.44;102656;1254;1003790;-65
2024/01/10 00:49:38;;;;;;;93.10;44.60;;;;;;;-7.29;61.72;101869.75;103360;1254;107577;-65
2024/01/10 00:52:06;;;;;;;100.20;45.60;;;;;;;-7.27;61.89;101875.81;103397;1250;96979;-65
2024/01/10 00:54:33;;;;;;;101.10;44.40;;;;;;;-7.24;61.90;101875.44;103372;1250;138540;-65
2024/01/10 00:57:00;;;;;;;95.40;45.50;;;;;;;-7.23;61.84;101875.52;103411;1250;96488;-65
2024/01/10 00:59:28;;;;;;;101.20;47.30;;;;;;;-7.21;61.85;101875.52;103329;1251;139366;-65
2024/01/10 01:01:55;;;;;;;103.00;48.00;;;;;;;-7.21;61.67;101872.60;103346;1250;108513;-65
2024/01/10 01:04:22;;;;;;;104.10;46.80;;;;;;;-7.26;61.58;101870.41;103423;1254;97125;-65
2024/01/10 01:06:49;;;;;;;104.20;47.10;;;;;;;-7.33;61.81;101869.89;103232;1254;139388;-66
2024/01/10 01:09:16;;;;;;;104.80;48.40;;;;;;;-7.35;61.90;101871.29;103514;1254;96423;-66
2024/01/10 01:11:42;;;;;;;100.40;46.50;;;;;;;-7.38;61.81;101873.21;103335;1251;139077;-66
2024/01/10 01:14:09;;;;;;;105.00;48.20;;;;;;;-7.50;61.88;101869.40;103298;1250;107846;-65
2024/01/10 01:16:36;;;;;;;110.90;51.90;;;;;;;-7.56;62.17;101863.52;102706;1251;1002600;-66
2024/01/10 01:19:03;;;;;;;104.90;48.60;;;;;;;-7.60;62.22;101866.33;103285;1251;138796;-65
2024/01/10 01:21:30;;;;;;;107.70;49.00;;;;;;;-7.63;62.44;101858.58;103470;1250;96538;-65
2024/01/10 01:23:57;;;;;;;104.70;49.80;;;;;;;-7.62;62.59;101858.81;102568;1251;1003051;-66
2024/01/10 01:26:24;;;;;;;110.40;50.00;;;;;;;-7.63;62.68;101851.77;103354;1251;108686;-65
2024/01/10 01:28:51;;;;;;;111.40;51.70;;;;;;;-7.63;62.71;101854.00;103400;1251;97041;-65
2024/01/10 01:31:18;;;;;;;113.90;52.20;;;;;;;-7.63;62.87;101847.40;102550;1251;1003717;-66
2024/01/10 01:33:45;;;;;;;110.80;51.20;;;;;;;-7.63;62.72;101841.19;103450;1251;96437;-65
2024/01/10 01:36:12;;;;;;;101.90;49.20;;;;;;;-7.61;63.06;101838.07;103264;1250;138602;-65
2024/01/10 01:38:39;;;;;;;106.80;50.00;;;;;;;-7.61;63.04;101834.88;102639;1250;1003810;-66
2024/01/10 01:41:09;;;;;;;106.10;48.70;;;;;;;-7.59;62.94;101834.29;103311;1251;139023;-66
2024/01/10 01:43:36;;;;;;;112.50;50.80;;;;;;;-7.60;62.72;101828.99;104440;1251;107869;-66
2024/01/10 01:46:03;;;;;;;106.10;48.90;;;;;;;-7.58;62.93;101831.31;103407;1251;96545;-66
2024/01/10 01:48:30;;;;;;;105.20;48.40;;;;;;;-7.58;62.85;101831.16;103337;1251;138617;-66
2024/01/10 01:51:03;;;;;;;105.30;49.40;;;;;;;-7.61;62.87;101825.92;103740;1251;108012;-66
2024/01/10 01:53:30;;;;;;;102.40;47.50;;;;;;;-7.63;62.87;101827.95;103356;1251;140455;-65
2024/01/10 01:55:57;;;;;;;104.40;48.80;;;;;;;-7.63;62.89;101825.09;103430;1251;108316;-67
2024/01/10 01:58:25;;;;;;;103.90;47.80;;;;;;;-7.61;63.10;101822.38;103343;1251;96964;-65
2024/01/10 02:00:52;;;;;;;100.80;47.40;;;;;;;-7.62;62.87;101822.14;103283;1251;138347;-65
2024/01/10 02:03:19;;;;;;;105.70;47.00;;;;;;;-7.62;63.06;101823.64;103383;1254;107383;-64
2024/01/10 02:05:47;;;;;;;105.10;48.10;;;;;;;-7.62;62.98;101820.27;103327;1254;139087;-66
2024/01/10 02:08:14;;;;;;;102.60;45.90;;;;;;;-7.61;63.01;101824.77;102698;1254;1003140;-67
2024/01/10 02:10:41;;;;;;;109.60;48.90;;;;;;;-7.57;63.12;101825.81;103438;1251;96551;-66
2024/01/10 02:13:11;;;;;;;99.10;47.70;;;;;;;-7.53;63.10;101831.20;103782;1251;140067;-67
2024/01/10 02:15:38;;;;;;;99.30;45.10;;;;;;;-7.53;62.94;101834.74;103388;1251;107594;-65
2024/01/10 02:18:06;;;;;;;98.40;46.20;;;;;;;-7.54;62.94;101832.12;103303;1251;138500;-65
2024/01/10 02:20:35;;;;;;;104.50;45.90;;;;;;;-7.50;62.94;101836.26;103940;1251;107389;-65
2024/01/10 02:23:02;;;;;;;106.30;48.20;;;;;;;-7.50;63.01;101833.42;103089;1251;377650;-66
2024/01/10 02:25:29;;;;;;;102.20;47.10;;;;;;;-7.47;62.93;101836.45;103380;1251;109674;-67
2024/01/10 02:27:56;;;;;;;98.60;45.90;;;;;;;-7.49;62.67;101827.59;103393;1254;109332;-66
2024/01/10 02:30:23;;;;;;;97.30;45.30;;;;;;;-7.47;62.78;101824.95;103314;1251;140058;-65
2024/01/10 02:32:50;;;;;;;97.20;46.30;;;;;;;-7.47;62.81;101824.12;103408;1250;108175;-65
2024/01/10 02:35:17;;;;;;;98.10;46.50;;;;;;;-7.53;62.71;101822.41;103342;1251;140527;-65
2024/01/10 02:37:45;;;;;;;98.40;45.10;;;;;;;-7.62;62.80;101822.85;102679;1251;1002870;-65
2024/01/10 02:40:14;;;;;;;98.00;45.10;;;;;;;-7.68;62.78;101815.50;103388;1251;107487;-65
2024/01/10 02:42:42;;;;;;;94.80;46.90;;;;;;;-7.71;62.73;101813.90;103092;1250;1003677;-66
2024/01/10 02:45:10;;;;;;;97.50;45.90;;;;;;;-7.81;62.97;101805.13;103445;1251;110725;-66
2024/01/10 02:47:37;;;;;;;97.00;46.40;;;;;;;-7.84;63.12;101817.13;103372;1251;138801;-66
2024/01/10 02:50:05;;;;;;;94.70;46.40;;;;;;;-7.84;63.06;101813.79;103420;1254;109762;-65
2024/01/10 02:52:32;;;;;;;94.80;47.00;;;;;;;-7.85;63.44;101801.52;103975;1250;106942;-66
2024/01/10 02:55:00;;;;;;;98.60;45.60;;;;;;;-7.86;63.34;101793.35;103289;1254;141017;-65
2024/01/10 02:57:27;;;;;;;98.60;47.00;;;;;;;-7.87;63.50;101787.70;102742;1253;1003046;-65
2024/01/10 02:59:53;;;;;;;106.40;47.20;;;;;;;-7.83;63.56;101789.80;103318;1250;138594;-64
2024/01/10 03:02:20;;;;;;;97.40;45.30;;;;;;;-7.84;63.47;101781.79;103496;1250;109165;-64
2024/01/10 03:04:48;;;;;;;99.50;45.40;;;;;;;-7.89;63.49;101783.18;103385;1250;108530;-64
2024/01/10 03:07:15;;;;;;;98.70;46.70;;;;;;;-7.91;63.57;101771.74;103218;1250;139087;-66
2024/01/10 03:09:42;;;;;;;94.80;44.20;;;;;;;-7.89;63.63;101774.23;103200;1251;108289;-67
2024/01/10 03:12:10;;;;;;;94.30;45.40;;;;;;;-7.85;63.78;101776.19;102315;1250;1003763;-65
2024/01/10 03:14:37;;;;;;;96.50;45.70;;;;;;;-7.84;63.79;101774.58;103223;1251;110876;-66
2024/01/10 03:17:04;;;;;;;93.90;45.10;;;;;;;-7.80;63.63;101773.98;103328;1250;107103;-66
2024/01/10 03:19:31;;;;;;;97.70;46.20;;;;;;;-7.81;63.71;101773.61;103425;1251;96303;-65
2024/01/10 03:21:58;;;;;;;103.40;45.90;;;;;;;-7.85;63.62;101770.63;103424;1253;108684;-66
2024/01/10 03:24:27;;;;;;;101.20;45.80;;;;;;;-7.85;63.71;101772.52;101761;1250;1003600;-65
2024/01/10 03:26:54;;;;;;;105.00;46.30;;;;;;;-7.87;63.74;101765.27;103764;1251;109236;-65
2024/01/10 03:29:21;;;;;;;100.60;47.50;;;;;;;-7.86;63.72;101764.30;103212;1251;138692;-65
2024/01/10 03:31:47;;;;;;;93.80;46.10;;;;;;;-7.83;63.99;101760.83;103480;1250;96344;-64
2024/01/10 03:34:16;;;;;;;98.50;47.10;;;;;;;-7.85;63.89;101761.84;103407;1254;107366;-65
2024/01/10 03:36:43;;;;;;;103.00;48.40;;;;;;;-7.90;63.95;101769.61;103319;1251;138463;-64
2024/01/10 03:39:10;;;;;;;96.20;46.20;;;;;;;-7.87;63.93;101759.52;103627;1250;108795;-65
2024/01/10 03:41:38;;;;;;;94.70;46.20;;;;;;;-7.82;64.06;101758.15;103253;1254;138835;-67
2024/01/10 03:44:05;;;;;;;98.70;46.30;;;;;;;-7.80;63.93;101764.02;103447;1254;96392;-65
2024/01/10 03:46:32;;;;;;;101.40;48.50;;;;;;;-7.74;64.10;101769.48;103520;1253;109850;-66
2024/01/10 03:48:59;;;;;;;98.90;48.10;;;;;;;-7.77;63.79;101771.67;103275;1251;141339;-65
2024/01/10 03:51:26;;;;;;;92.20;45.10;;;;;;;-7.81;63.96;101766.50;103332;1250;110557;-65
2024/01/10 03:53:54;;;;;;;96.10;46.30;;;;;;;-7.85;63.98;101762.66;103335;1251;138736;-65
2024/01/10 03:56:22;;;;;;;93.50;45.40;;;;;;;-7.86;64.09;101756.56;102679;1251;1003426;-65
2024/01/10 03:58:49;;;;;;;101.70;47.50;;;;;;;-7.83;64.13;101756.42;103423;1254;108583;-64
2024/01/10 04:01:16;;;;;;;99.80;47.50;;;;;;;-7.83;64.01;101750.99;103330;1250;139936;-64
2024/01/10 04:03:44;;;;;;;96.00;47.30;;;;;;;-7.89;64.15;101745.89;103437;1254;109824;-65
2024/01/10 04:06:11;;;;;;;99.70;46.10;;;;;;;-7.91;64.21;101742.04;103339;1251;138670;-65
2024/01/10 04:08:38;;;;;;;101.80;47.60;;;;;;;-7.94;64.22;101736.93;103211;1250;96449;-64
2024/01/10 04:11:04;;;;;;;96.70;46.80;;;;;;;-7.95;64.12;101734.36;103210;1254;107262;-65
2024/01/10 04:13:31;;;;;;;99.50;46.00;;;;;;;-7.95;64.21;101734.20;103118;1254;96469;-65
2024/01/10 04:15:58;;;;;;;93.10;45.70;;;;;;;-7.96;64.17;101729.73;103268;1251;110545;-64
2024/01/10 04:18:25;;;;;;;93.80;45.60;;;;;;;-7.97;64.26;101728.30;103176;1250;138413;-66
2024/01/10 04:20:52;;;;;;;97.40;45.40;;;;;;;-8.00;64.15;101727.64;103403;1251;96442;-67
2024/01/10 04:23:20;;;;;;;93.30;45.50;;;;;;;-8.01;64.19;101729.08;103138;1254;138337;-65
2024/01/10 04:25:47;;;;;;;96.80;45.30;;;;;;;-7.98;64.45;101723.91;104485;1250;94500;-67
2024/01/10 04:28:13;;;;;;;95.20;44.70;;;;;;;-7.95;64.29;101724.94;104060;1250;110133;-64
2024/01/10 04:30:40;;;;;;;97.20;45.90;;;;;;;-7.94;64.27;101720.55;103639;1250;139197;-67
2024/01/10 04:33:08;;;;;;;96.70;44.50;;;;;;;-7.94;64.31;101719.09;103330;1254;96527;-64
2024/01/10 04:35:35;;;;;;;101.20;46.60;;;;;;;-7.92;64.33;101712.80;104342;1250;138358;-67
2024/01/10 04:38:02;;;;;;;98.00;45.90;;;;;;;-7.93;64.25;101714.40;103786;1251;95163;-65
2024/01/10 04:40:29;;;;;;;100.50;45.10;;;;;;;-7.96;64.31;101714.40;102439;1250;1003265;-65
2024/01/10 04:42:56;;;;;;;100.30;47.30;;;;;;;-7.93;64.19;101716.91;103053;1251;138816;-66
2024/01/10 04:45:23;;;;;;;93.60;45.80;;;;;;;-7.91;64.34;101724.80;103260;1254;97672;-66
2024/01/10 04:47:50;;;;;;;98.10;48.10;;;;;;;-7.92;64.33;101725.42;102324;1253;1003561;-65
2024/01/10 04:50:17;;;;;;;98.80;47.40;;;;;;;-7.92;64.32;101726.30;103256;1251;96430;-65
2024/01/10 04:52:44;;;;;;;97.20;45.70;;;;;;;-7.93;64.42;101725.55;104641;1250;109210;-65
2024/01/10 04:55:11;;;;;;;98.50;47.60;;;;;;;-7.90;64.47;101724.52;102999;1255;138490;-66
2024/01/10 04:57:38;;;;;;;101.70;48.10;;;;;;;-7.92;64.49;101722.91;102587;1250;1003181;-65
2024/01/10 05:00:07;;;;;;;96.60;46.50;;;;;;;-7.89;64.33;101729.17;103227;1250;138758;-65
2024/01/10 05:02:34;;;;;;;95.90;47.00;;;;;;;-7.92;64.35;101728.67;102706;1250;1002877;-65
2024/01/10 05:05:01;;;;;;;100.50;48.20;;;;;;;-7.93;64.51;101735.83;103408;1254;109723;-65
2024/01/10 05:07:28;;;;;;;103.30;47.70;;;;;;;-7.93;64.45;101740.58;103324;1251;138307;-65
2024/01/10 05:09:55;;;;;;;98.40;46.50;;;;;;;-7.93;64.49;101743.95;103403;1251;96456;-64
2024/01/10 05:12:22;;;;;;;103.10;46.50;;;;;;;-7.94;64.47;101744.88;103339;1250;138791;-65
2024/01/10 05:14:49;;;;;;;98.70;46.20;;;;;;;-7.96;64.45;101747.94;103421;1251;96444;-65
2024/01/10 05:17:16;;;;;;;101.20;46.60;;;;;;;-8.00;64.47;101754.31;103334;1251;138542;-65
2024/01/10 05:19:46;;;;;;;92.00;44.60;;;;;;;-8.01;64.48;101748.30;103409;1251;107698;-65
2024/01/10 05:22:13;;;;;;;96.20;45.90;;;;;;;-8.05;64.47;101749.43;103513;1250;96984;-64
2024/01/10 05:24:40;;;;;;;94.50;44.70;;;;;;;-8.06;64.61;101744.46;103346;1254;138734;-64
2024/01/10 05:27:08;;;;;;;99.00;45.10;;;;;;;-8.08;64.43;101741.75;103447;1251;96471;-65
2024/01/10 05:29:35;;;;;;;99.70;45.90;;;;;;;-8.12;64.45;101738.46;103805;1253;138802;-65
2024/01/10 05:32:02;;;;;;;99.00;45.00;;;;;;;-8.15;64.49;101735.73;102587;1254;1002961;-67
2024/01/10 05:34:29;;;;;;;91.30;44.40;;;;;;;-8.14;64.56;101729.84;103403;1251;97017;-66
2024/01/10 05:36:55;;;;;;;94.90;45.20;;;;;;;-8.10;64.40;101731.34;103225;1250;138165;-66
2024/01/10 05:39:22;;;;;;;93.60;44.50;;;;;;;-8.11;64.34;101735.64;103327;1254;96524;-66
2024/01/10 05:41:50;;;;;;;89.00;43.30;;;;;;;-8.19;64.22;101734.93;103014;1250;138622;-66
2024/01/10 05:44:17;;;;;;;95.50;44.30;;;;;;;-8.19;64.28;101738.83;103329;1251;107076;-65
2024/01/10 05:46:45;;;;;;;97.80;45.70;;;;;;;-8.27;64.20;101736.80;103456;1251;96539;-64
2024/01/10 05:49:12;;;;;;;98.60;45.90;;;;;;;-8.27;64.35;101745.56;103363;1251;138303;-65
2024/01/10 05:51:39;;;;;;;96.80;45.20;;;;;;;-8.22;64.50;101746.92;103389;1254;96431;-66
2024/01/10 05:54:07;;;;;;;93.40;46.60;;;;;;;-8.22;64.54;101742.03;103305;1254;138167;-66
2024/01/10 05:56:35;;;;;;;96.90;46.60;;;;;;;-8.22;64.72;101736.62;103420;1249;107866;-65
2024/01/10 05:59:02;;;;;;;97.40;46.60;;;;;;;-8.19;64.70;101731.55;103462;1250;97108;-65
2024/01/10 06:01:30;;;;;;;97.20;46.60;;;;;;;-8.22;64.72;101733.77;103257;1254;138913;-65
2024/01/10 06:03:57;;;;;;;95.40;46.60;;;;;;;-8.27;64.70;101737.93;103345;1251;96447;-65
2024/01/10 06:06:24;;;;;;;101.30;47.30;;;;;;;-8.25;65.01;101737.45;103305;1251;137313;-65
2024/01/10 06:08:51;;;;;;;99.10;46.00;;;;;;;-8.19;65.06;101726.02;103821;1250;107872;-65
2024/01/10 06:11:18;;;;;;;103.40;50.20;;;;;;;-8.17;65.03;101719.04;103341;1251;138739;-66
2024/01/10 06:13:45;;;;;;;105.40;49.10;;;;;;;-8.20;65.05;101712.98;103486;1251;107392;-67
2024/01/10 06:16:22;;;;;;;106.60;48.60;;;;;;;-8.19;65.00;101704.73;103393;1254;96434;-65
2024/01/10 06:18:49;;;;;;;105.20;49.30;;;;;;;-8.19;65.14;101708.15;103292;1251;138984;-66
2024/01/10 06:21:16;;;;;;;104.90;48.30;;;;;;;-8.19;65.08;101712.35;102666;1250;1002921;-66
2024/01/10 06:23:43;;;;;;;108.90;48.80;;;;;;;-8.20;65.12;101712.27;103290;1250;138906;-67
2024/01/10 06:26:10;;;;;;;104.70;48.70;;;;;;;-8.22;65.05;101709.67;103440;1251;107195;-66
2024/01/10 06:28:38;;;;;;;105.60;47.90;;;;;;;-8.19;65.26;101709.84;103398;1255;96309;-67
2024/01/10 06:31:06;;;;;;;104.30;47.10;;;;;;;-8.14;65.28;101713.15;103358;1254;138567;-65
2024/01/10 06:33:37;;;;;;;109.00;48.30;;;;;;;-8.12;65.28;101713.63;103380;1255;107301;-65
2024/01/10 06:36:05;;;;;;;107.50;48.30;;;;;;;-8.12;65.11;101719.52;103306;1251;138681;-66
2024/01/10 06:38:32;;;;;;;107.30;47.90;;;;;;;-8.19;65.04;101724.64;103503;1256;107857;-65
2024/01/10 06:40:59;;;;;;;100.50;46.70;;;;;;;-8.18;65.22;101724.54;103399;1250;96537;-67
2024/01/10 06:43:29;;;;;;;105.30;48.90;;;;;;;-8.15;65.30;101732.88;103302;1250;138339;-66
2024/01/10 06:45:56;;;;;;;103.60;48.50;;;;;;;-8.18;65.21;101730.46;103365;1256;108332;-66
2024/01/10 06:48:23;;;;;;;103.30;48.90;;;;;;;-8.21;65.06;101733.32;103340;1254;139018;-66
2024/01/10 06:50:50;;;;;;;107.40;47.70;;;;;;;-8.19;65.32;101734.13;103404;1250;107818;-66
2024/01/10 06:53:17;;;;;;;109.00;48.00;;;;;;;-8.16;65.34;101734.12;103323;1250;140271;-66
2024/01/10 06:55:44;;;;;;;107.20;49.20;;;;;;;-8.13;65.38;101735.02;103502;1251;109237;-66
2024/01/10 06:58:12;;;;;;;103.70;49.50;;;;;;;-8.08;65.48;101734.02;103377;1254;107260;-65
2024/01/10 07:00:39;;;;;;;100.30;48.50;;;;;;;-7.97;65.53;101738.95;103335;1251;138727;-65
2024/01/10 07:03:06;;;;;;;105.60;50.40;;;;;;;-7.89;65.49;101738.66;102593;1253;1003210;-66
2024/01/10 07:05:33;;;;;;;108.90;49.60;;;;;;;-7.80;65.31;101728.90;103238;1254;139593;-66
2024/01/10 07:08:02;;;;;;;107.10;48.90;;;;;;;-7.77;65.17;101726.71;103409;1251;109296;-65
2024/01/10 07:10:30;;;;;;;107.90;50.00;;;;;;;-7.75;65.00;101733.30;102606;1253;1003245;-65
2024/01/10 07:12:59;;;;;;;107.50;50.50;;;;;;;-7.73;64.84;101739.47;103248;1256;138779;-66
2024/01/10 07:15:26;;;;;;;112.50;52.20;;;;;;;-7.68;65.00;101741.22;102656;1250;1002888;-66
2024/01/10 07:17:52;;;;;;;109.80;51.40;;;;;;;-7.60;64.93;101736.79;103518;1251;138678;-66
2024/01/10 07:20:19;;;;;;;110.60;50.90;;;;;;;-7.48;64.74;101735.21;103342;1251;109967;-65
2024/01/10 07:22:46;;;;;;;107.80;50.90;;;;;;;-7.38;64.67;101738.23;103314;1255;107415;-66
2024/01/10 07:25:15;;;;;;;110.60;51.90;;;;;;;-7.25;64.66;101742.40;103324;1252;138902;-66
2024/01/10 07:27:42;;;;;;;109.30;51.60;;;;;;;-7.07;64.38;101744.76;103379;1253;107519;-65
2024/01/10 07:30:13;;;;;;;110.40;52.30;;;;;;;-6.88;64.55;101745.60;103241;1251;139140;-66
2024/01/10 07:32:41;;;;;;;102.90;51.80;;;;;;;-6.70;64.11;101740.93;104156;1251;109433;-67
2024/01/10 07:35:10;;;;;;;116.50;56.70;;;;;;;-6.52;64.05;101743.56;103415;1251;108015;-66
2024/01/10 07:37:37;;;;;;;122.80;59.80;;;;;;;-6.33;63.64;101740.46;103595;1254;96945;-67
2024/01/10 07:40:06;;;;;;;114.80;59.10;;;;;;;-6.17;63.30;101734.99;103386;1251;109333;-66
2024/01/10 07:42:34;;;;;;;127.20;62.30;;;;;;;-6.06;63.05;101732.95;104651;1250;138499;-69
2024/01/10 07:45:03;;;;;;;125.50;61.80;;;;;;;-5.95;62.44;101723.90;103772;1253;1003075;-65
2024/01/10 07:47:31;;;;;;;125.90;61.80;;;;;;;-5.88;62.24;101720.08;103374;1256;138437;-65
2024/01/10 07:49:59;;;;;;;128.10;63.20;;;;;;;-5.83;61.95;101723.72;103605;1253;97003;-64
2024/01/10 07:52:26;;;;;;;128.80;64.10;;;;;;;-5.78;61.80;101725.05;103558;1250;106886;-65
2024/01/10 07:54:52;;;;;;;130.60;63.30;;;;;;;-5.72;61.32;101730.45;103192;1250;138291;-66
2024/01/10 07:57:19;;;;;;;126.00;62.90;;;;;;;-5.66;61.50;101728.77;103334;1251;109408;-65
2024/01/10 07:59:47;;;;;;;128.00;64.20;;;;;;;-5.58;61.55;101728.73;103273;1250;139854;-66
2024/01/10 08:02:14;;;;;;;123.20;65.00;;;;;;;-5.47;61.40;101730.51;103363;1253;96546;-66
2024/01/10 08:04:41;;;;;;;124.10;64.50;;;;;;;-5.36;61.31;101733.00;103552;1253;138817;-66
2024/01/10 08:07:08;;;;;;;129.30;64.90;;;;;;;-5.26;60.90;101733.02;103740;1252;98169;-66
2024/01/10 08:09:36;;;;;;;126.00;64.80;;;;;;;-5.18;60.97;101733.51;103268;1256;139732;-65
2024/01/10 08:12:03;;;;;;;126.30;66.10;;;;;;;-5.05;60.85;101734.05;103267;1254;109003;-65
2024/01/10 08:14:30;;;;;;;127.30;66.30;;;;;;;-4.85;60.69;101731.88;104160;1253;139041;-66
2024/01/10 08:16:58;;;;;;;124.10;65.10;;;;;;;-4.67;60.23;101733.01;103235;1256;108470;-65
2024/01/10 08:19:26;;;;;;;125.00;65.00;;;;;;;-4.56;59.96;101730.23;103395;1256;96469;-66
2024/01/10 08:21:53;;;;;;;124.20;66.20;;;;;;;-4.46;59.89;101724.15;103558;1256;138471;-65
2024/01/10 08:24:20;;;;;;;130.60;67.10;;;;;;;-4.33;59.81;101730.58;103352;1253;106930;-66
2024/01/10 08:26:47;;;;;;;123.70;65.70;;;;;;;-4.17;59.37;101733.06;102564;1255;1002485;-66
2024/01/10 08:29:15;;;;;;;130.80;67.20;;;;;;;-4.05;58.87;101731.14;104519;1252;107035;-65
2024/01/10 08:31:42;;;;;;;127.50;68.70;;;;;;;-3.95;58.62;101721.14;104730;1253;94792;-65
2024/01/10 08:34:09;;;;;;;124.50;67.30;;;;;;;-3.88;58.18;101715.36;103414;1255;137886;-68
2024/01/10 08:36:36;;;;;;;123.70;67.20;;;;;;;-3.73;58.13;101724.08;103302;1254;107681;-66
2024/01/10 08:39:03;;;;;;;123.20;67.00;;;;;;;-3.63;57.93;101726.43;102272;1253;1003355;-66
2024/01/10 08:41:31;;;;;;;122.30;66.60;;;;;;;-3.53;57.56;101719.81;103233;1253;108190;-66
2024/01/10 08:43:59;;;;;;;123.10;66.00;;;;;;;-3.44;57.75;101713.42;103273;1256;96646;-67
2024/01/10 08:46:27;;;;;;;126.50;67.30;;;;;;;-3.33;57.16;101710.23;103776;1252;137843;-67
2024/01/10 08:48:54;;;;;;;124.10;67.50;;;;;;;-3.23;57.20;101710.66;102573;1253;1003547;-67
2024/01/10 08:51:21;;;;;;;124.20;66.90;;;;;;;-3.13;57.21;101710.48;104587;1252;140060;-65
2024/01/10 08:53:48;;;;;;;126.30;67.00;;;;;;;-3.02;56.93;101707.43;102689;1252;1003362;-65
2024/01/10 08:56:17;;;;;;;120.30;65.80;;;;;;;-2.88;56.48;101715.70;103305;1253;96454;-66
2024/01/10 08:58:45;;;;;;;116.40;65.30;;;;;;;-2.74;56.98;101719.60;104512;1253;139376;-67
2024/01/10 09:01:12;;;;;;;122.60;66.70;;;;;;;-2.54;56.86;101718.63;103908;1253;1003456;-66
2024/01/10 09:03:39;;;;;;;124.40;67.20;;;;;;;-2.34;56.73;101720.82;103454;1254;138692;-66
2024/01/10 09:06:07;;;;;;;117.80;66.00;;;;;;;-2.15;56.41;101726.09;104625;1253;107357;-66
2024/01/10 09:08:39;;;;;;;120.10;64.60;;;;;;;-1.99;55.89;101730.90;103573;1253;138280;-65
2024/01/10 09:11:06;;;;;;;125.50;66.20;;;;;;;-1.88;55.68;101737.33;101773;1253;1003615;-66
2024/01/10 09:13:33;;;;;;;122.10;67.30;;;;;;;-1.71;56.05;101743.65;103284;1253;107903;-65
2024/01/10 09:16:01;;;;;;;117.30;64.30;;;;;;;-1.54;55.60;101746.77;102494;1256;1003694;-66
2024/01/10 09:18:28;;;;;;;116.30;64.60;;;;;;;-1.42;55.20;101740.21;103918;1253;1003338;-66
2024/01/10 09:20:55;;;;;;;111.70;65.20;;;;;;;-1.25;55.34;101741.59;104575;1253;138515;-66
2024/01/10 09:23:23;;;;;;;115.50;64.70;;;;;;;-1.07;54.93;101731.02;103963;1252;108861;-65
2024/01/10 09:25:50;;;;;;;120.30;66.90;;;;;;;-0.98;54.51;101730.20;102554;1252;1003021;-66
2024/01/10 09:28:18;;;;;;;119.90;67.00;;;;;;;-0.91;54.61;101728.73;103264;1253;138920;-68
2024/01/10 09:30:45;;;;;;;116.80;65.80;;;;;;;-0.84;54.34;101718.10;103261;1254;107918;-66
2024/01/10 09:33:13;;;;;;;117.10;66.50;;;;;;;-0.75;54.33;101718.95;103280;1252;137937;-67
2024/01/10 09:35:40;;;;;;;116.00;67.10;;;;;;;-0.60;54.01;101719.83;103358;1256;109384;-67
2024/01/10 09:38:07;;;;;;;118.60;66.50;;;;;;;-0.55;53.76;101716.41;102507;1254;1003236;-68
2024/01/10 09:40:34;;;;;;;118.10;66.20;;;;;;;-0.45;53.69;101720.73;102440;1253;1003052;-68
2024/01/10 09:43:01;;;;;;;116.60;65.40;;;;;;;-0.42;53.37;101721.50;103351;1256;108015;-67
2024/01/10 09:45:29;;;;;;;120.40;67.50;;;;;;;-0.40;53.28;101720.90;103250;1256;138957;-68
2024/01/10 09:47:57;;;;;;;118.40;69.70;;;;;;;-0.27;53.49;101723.41;103398;1256;110182;-67
2024/01/10 09:50:25;;;;;;;113.50;67.40;;;;;;;-0.20;53.13;101713.91;103326;1258;107205;-67
2024/01/10 09:52:54;;;;;;;116.30;66.00;;;;;;;-0.12;53.02;101716.10;103892;1253;96461;-68
2024/01/10 09:55:22;;;;;;;117.60;65.50;;;;;;;-0.04;52.93;101717.55;103311;1256;108469;-67
2024/01/10 09:57:52;;;;;;;118.90;67.40;;;;;;;0.05;52.85;101721.77;103282;1252;138003;-67
2024/01/10 10:00:21;;;;;;;116.50;67.30;;;;;;;0.17;52.74;101720.49;103377;1256;109737;-67
2024/01/10 10:02:51;;;;;;;117.10;67.10;;;;;;;0.30;52.67;101723.51;103236;1253;138080;-66
2024/01/10 10:05:19;;;;;;;119.20;68.00;;;;;;;0.46;52.71;101723.86;102609;1253;1003456;-67
2024/01/10 10:07:50;;;;;;;118.00;66.20;;;;;;;0.60;52.44;101720.04;103389;1253;108813;-67
2024/01/10 10:10:18;;;;;;;111.50;66.90;;;;;;;0.81;52.55;101722.76;103243;1253;137709;-68
2024/01/10 10:12:47;;;;;;;111.30;65.10;;;;;;;1.04;52.38;101719.66;103793;1253;110182;-67
2024/01/10 10:15:16;;;;;;;112.60;65.60;;;;;;;1.12;51.94;101714.29;103256;1253;137804;-67
2024/01/10 10:17:47;;;;;;;115.00;64.40;;;;;;;1.20;51.31;101707.66;104777;1253;94254;-68
2024/01/10 10:20:22;;;;;;;111.10;66.60;;;;;;;1.27;51.44;101707.52;103483;1252;107280;-67
2024/01/10 10:23:02;;;;;;;114.50;67.50;;;;;;;1.43;51.38;101707.46;102684;1256;1002856;-66
2024/01/10 10:25:35;;;;;;;117.30;68.20;;;;;;;1.52;50.95;101695.88;103538;1256;108955;-67
2024/01/10 10:28:04;;;;;;;104.60;64.90;;;;;;;1.67;51.18;101697.34;103840;1253;1002500;-68
2024/01/10 10:30:33;;;;;;;107.20;63.10;;;;;;;1.86;51.13;101699.89;104217;1256;96530;-67
2024/01/10 10:33:01;;;;;;;111.80;65.00;;;;;;;2.12;51.34;101692.84;102480;1253;1002823;-67
2024/01/10 10:35:28;;;;;;;111.20;66.40;;;;;;;2.26;50.57;101687.36;102589;1256;1003577;-67
2024/01/10 10:38:07;;;;;;;115.90;65.20;;;;;;;2.28;49.91;101679.52;103397;1253;111017;-68
2024/01/10 10:40:34;;;;;;;102.40;62.50;;;;;;;2.28;50.13;101682.11;103259;1252;139070;-69
2024/01/10 10:43:04;;;;;;;106.00;63.50;;;;;;;2.34;50.33;101684.66;103329;1252;96364;-67
2024/01/10 10:45:34;;;;;;;107.90;64.50;;;;;;;2.42;49.98;101682.61;102448;1253;1003807;-68
2024/01/10 10:48:02;;;;;;;105.20;64.20;;;;;;;2.47;49.57;101676.52;103320;1256;96429;-67
2024/01/10 10:50:33;;;;;;;102.00;61.80;;;;;;;2.50;49.79;101677.98;104173;1252;138053;-67